Time;durP1;ratioP1;P1;durP2;ratioP2;P2;SDS_P1;SDS_P2;PMS_P1;PMS_P2;Temp;Humidity;BMP_temperature;BMP_pressure;BME280_temperature;BME280_humidity;BME280_pressure;Samples;Min_cycle;Max_cycle;Signal;HPM_P1;HPM_P2
2023/07/13 00:18:05;;;;;;;4.27;3.40;;;20.10;1.00;;;;;;5135608;23;20500;-91
2023/07/13 00:23:41;;;;;;;5.93;4.80;;;20.30;99.90;;;;;;4950414;28;20443;-91
2023/07/13 00:26:34;;;;;;;4.13;3.73;;;20.30;99.90;;;;;;4981278;28;20525;-91
2023/07/13 00:29:08;;;;;;;5.20;3.70;;;;;;;;;;4976296;28;20485;-93
2023/07/13 02:18:38;;;;;;;4.47;3.67;;;19.50;99.90;;;;;;3320353;26;20560;-93
2023/07/13 02:39:03;;;;;;;5.93;3.70;;;19.00;1.00;;;;;;4866763;29;20416;-94
2023/07/13 05:30:50;;;;;;;3.50;3.20;;;19.80;1.00;;;;;;4937882;29;20451;-92
2023/07/13 06:47:46;;;;;;;4.83;3.00;;;21.10;99.90;;;;;;4830585;29;20537;-91
2023/07/13 06:57:34;;;;;;;4.43;2.70;;;21.40;99.90;;;;;;4760938;30;20495;-94
2023/07/13 07:08:37;;;;;;;5.50;5.10;;;21.60;99.90;;;;;;5564165;23;20497;-90
2023/07/13 07:11:05;;;;;;;5.23;4.30;;;21.60;99.90;;;;;;4962442;29;20970;-90
2023/07/13 07:13:33;;;;;;;2.47;2.27;;;21.60;99.90;;;;;;4964176;29;20454;-89
2023/07/13 07:16:00;;;;;;;4.10;2.57;;;21.90;1.00;;;;;;4963457;29;20485;-90
2023/07/13 07:18:28;;;;;;;10.37;2.73;;;19.90;99.90;;;;;;4963436;29;20539;-90
2023/07/13 07:20:55;;;;;;;4.97;2.47;;;;;;;;;;4963060;29;20525;-88
2023/07/13 07:23:39;;;;;;;2.43;2.13;;;21.90;99.90;;;;;;4964114;29;20828;-94
2023/07/13 07:54:40;;;;;;;5.73;3.40;;;22.90;99.90;;;;;;1478845;26;20477;-89
2023/07/13 07:57:08;;;;;;;3.00;2.33;;;;;;;;;;4979852;28;20430;-90
2023/07/13 07:59:37;;;;;;;3.30;2.10;;;22.80;1.00;;;;;;4973224;29;20450;-90
2023/07/13 08:02:15;;;;;;;7.27;2.23;;;;;;;;;;4970527;28;20598;-90
2023/07/13 08:04:46;;;;;;;2.30;2.10;;;;;;;;;;4971779;29;20442;-91
2023/07/13 08:07:16;;;;;;;2.53;2.27;;;22.80;99.90;;;;;;4970647;29;20462;-90
2023/07/13 08:09:46;;;;;;;4.07;2.37;;;23.30;99.90;;;;;;4969637;29;20509;-92
2023/07/13 08:12:16;;;;;;;3.10;2.80;;;22.70;99.90;;;;;;4970901;28;20465;-91
2023/07/13 08:14:46;;;;;;;3.30;2.33;;;;;;;;;;4970278;29;20453;-90
2023/07/13 08:17:33;;;;;;;2.77;2.20;;;22.70;99.90;;;;;;4971336;29;20454;-90
2023/07/13 08:20:11;;;;;;;4.40;2.63;;;22.70;99.90;;;;;;4973919;28;20442;-91
2023/07/13 08:22:41;;;;;;;3.63;2.10;;;22.80;99.90;;;;;;4971791;28;20517;-92
2023/07/13 08:25:11;;;;;;;3.07;1.93;;;22.70;99.90;;;;;;4968867;29;20498;-91
2023/07/13 08:27:46;;;;;;;3.60;1.93;;;;;;;;;;4968158;29;20518;-92
2023/07/13 08:31:14;;;;;;;3.03;1.73;;;22.80;99.90;;;;;;4977340;28;20501;-92
2023/07/13 08:33:59;;;;;;;2.27;2.07;;;22.80;1.00;;;;;;4954593;28;20428;-89
2023/07/13 08:36:28;;;;;;;4.33;2.00;;;;;;;;;;4970769;28;20522;-92
2023/07/13 08:39:21;;;;;;;3.20;1.90;;;22.80;99.90;;;;;;4977228;28;20450;-89
2023/07/13 08:42:15;;;;;;;2.90;2.20;;;22.80;99.90;;;;;;4972967;28;20864;-91
2023/07/13 08:44:57;;;;;;;2.10;1.90;;;22.80;99.90;;;;;;4977346;29;20473;-91
2023/07/13 08:47:25;;;;;;;4.67;2.00;;;;;;;;;;4979756;28;20478;-90
2023/07/13 08:49:53;;;;;;;6.93;2.50;;;;;;;;;;4980264;28;20470;-90
2023/07/13 08:52:34;;;;;;;2.90;1.97;;;22.80;99.90;;;;;;4980543;28;20552;-89
2023/07/13 08:55:09;;;;;;;3.20;2.37;;;22.80;99.90;;;;;;4980396;28;20469;-90
2023/07/13 08:57:42;;;;;;;2.80;2.10;;;22.80;99.90;;;;;;4979960;28;20442;-88
2023/07/13 09:00:15;;;;;;;3.57;1.90;;;22.60;1.00;;;;;;4980858;28;20465;-89
2023/07/13 09:03:06;;;;;;;2.30;2.10;;;22.90;99.90;;;;;;4979646;28;20485;-90
2023/07/13 09:05:41;;;;;;;3.90;3.50;;;22.90;99.90;;;;;;4976032;29;20471;-91
2023/07/13 09:08:39;;;;;;;2.93;1.97;;;23.10;99.90;;;;;;4969636;29;20438;-91
2023/07/13 09:11:45;;;;;;;7.07;3.80;;;23.30;1.00;;;;;;4978846;28;20588;-89
2023/07/13 09:14:35;;;;;;;2.47;1.87;;;23.50;99.90;;;;;;4975252;28;20447;-91
2023/07/13 09:17:23;;;;;;;4.33;2.00;;;23.60;99.90;;;;;;4979204;28;20450;-91
2023/07/13 09:19:59;;;;;;;5.27;2.20;;;23.50;99.90;;;;;;4980104;28;20463;-90
2023/07/13 09:22:39;;;;;;;3.00;1.70;;;23.40;99.90;;;;;;4980288;28;20481;-90
2023/07/13 09:25:19;;;;;;;4.73;2.20;;;23.40;99.90;;;;;;4975863;29;20438;-91
2023/07/13 09:27:48;;;;;;;3.77;2.10;;;23.50;99.90;;;;;;4980141;28;20429;-88
2023/07/13 09:30:39;;;;;;;6.23;1.77;;;23.80;1.00;;;;;;4979196;28;20478;-91
2023/07/13 09:33:10;;;;;;;1.97;1.37;;;23.50;99.90;;;;;;4968089;29;20463;-91
2023/07/13 09:35:38;;;;;;;4.07;1.43;;;;;;;;;;4977930;28;20456;-91
2023/07/13 09:38:13;;;;;;;2.37;1.90;;;23.60;99.90;;;;;;4978332;29;20497;-91
2023/07/13 09:41:08;;;;;;;2.90;2.13;;;23.60;99.90;;;;;;4978448;28;20422;-91
2023/07/13 09:43:47;;;;;;;4.07;3.07;;;;;;;;;;4978441;29;20427;-91
2023/07/13 09:46:25;;;;;;;3.07;2.87;;;23.40;99.90;;;;;;4973430;29;20454;-91
2023/07/13 09:49:01;;;;;;;5.70;3.70;;;23.30;99.90;;;;;;4973352;29;20450;-91
2023/07/13 09:51:28;;;;;;;3.70;2.93;;;;;;;;;;4970814;28;20470;-92
2023/07/13 09:53:58;;;;;;;5.90;5.07;;;23.00;1.00;;;;;;4970594;29;20454;-92
2023/07/13 09:56:43;;;;;;;4.87;4.47;;;23.30;99.90;;;;;;4968023;29;20462;-92
2023/07/13 09:59:26;;;;;;;4.93;3.50;;;23.60;99.90;;;;;;4972832;28;20466;-89
2023/07/13 10:01:56;;;;;;;5.70;3.67;;;23.70;99.90;;;;;;4973679;28;20521;-92
2023/07/13 10:04:35;;;;;;;7.03;3.83;;;23.80;99.90;;;;;;4973889;29;20451;-92
2023/07/13 10:07:14;;;;;;;4.43;4.03;;;23.70;1.00;;;;;;4974939;29;20529;-92
2023/07/13 10:09:44;;;;;;;5.10;4.40;;;23.80;99.90;;;;;;4975146;28;20517;-93
2023/07/13 10:12:18;;;;;;;4.00;3.60;;;23.80;99.90;;;;;;4976181;28;20458;-93
2023/07/13 10:14:47;;;;;;;3.93;3.63;;;;;;;;;;4976128;29;20480;-92
2023/07/13 10:17:20;;;;;;;4.13;3.83;;;24.10;99.90;;;;;;4980382;29;20441;-92
2023/07/13 10:19:59;;;;;;;5.13;3.47;;;24.20;99.90;;;;;;4980559;28;20444;-92
2023/07/13 10:22:35;;;;;;;6.13;4.10;;;24.20;99.90;;;;;;4979844;28;20473;-91
2023/07/13 10:25:02;;;;;;;4.43;4.03;;;;;;;;;;4975514;29;20457;-91
2023/07/13 10:27:36;;;;;;;4.30;3.43;;;24.40;99.90;;;;;;4976112;28;20434;-91
2023/07/13 10:30:13;;;;;;;4.13;3.77;;;24.60;1.00;;;;;;4979888;28;20445;-92
2023/07/13 10:32:42;;;;;;;4.23;3.50;;;;;;;;;;4981326;28;20489;-90
2023/07/13 10:35:15;;;;;;;5.93;3.10;;;24.70;99.90;;;;;;4974759;29;20449;-92
2023/07/13 10:37:51;;;;;;;4.53;4.00;;;24.50;99.90;;;;;;4974136;29;20418;-92
2023/07/13 10:40:41;;;;;;;6.37;4.13;;;24.40;99.90;;;;;;4973938;29;20454;-92
2023/07/13 10:43:22;;;;;;;3.80;3.47;;;24.40;99.90;;;;;;4971324;28;20505;-91
2023/07/13 10:46:05;;;;;;;7.90;3.40;;;24.20;1.00;;;;;;4979262;28;20454;-90
2023/07/13 10:48:39;;;;;;;5.53;3.80;;;24.00;99.90;;;;;;4971948;29;20443;-91
2023/07/13 10:51:11;;;;;;;8.00;3.27;;;24.40;99.90;;;;;;4970514;28;20521;-90
2023/07/13 10:53:42;;;;;;;3.60;2.93;;;24.40;99.90;;;;;;4969305;29;20453;-90
2023/07/13 10:56:26;;;;;;;4.23;3.57;;;24.30;99.90;;;;;;4974749;28;20461;-88
2023/07/13 10:59:18;;;;;;;4.73;4.33;;;24.40;99.90;;;;;;4982666;28;20406;-90
2023/07/13 11:02:04;;;;;;;4.57;3.67;;;24.60;99.90;;;;;;4982157;28;20476;-88
2023/07/13 11:04:59;;;;;;;3.33;3.03;;;24.60;99.90;;;;;;4977612;28;20438;-92
2023/07/13 11:07:52;;;;;;;5.00;3.53;;;24.70;99.90;;;;;;4975049;29;20795;-91
2023/07/13 11:11:03;;;;;;;3.63;3.43;;;24.80;99.90;;;;;;4975862;29;20934;-91
2023/07/13 11:14:26;;;;;;;3.90;3.30;;;25.00;99.90;;;;;;4981181;28;20442;-90
2023/07/13 11:17:01;;;;;;;8.00;4.00;;;;;;;;;;4975947;29;20512;-91
2023/07/13 11:19:47;;;;;;;6.60;3.10;;;25.00;99.90;;;;;;4974319;28;20514;-91
2023/07/13 11:22:28;;;;;;;3.47;2.97;;;25.10;99.90;;;;;;4973417;28;20485;-91
2023/07/13 11:25:32;;;;;;;3.30;3.10;;;24.80;1.00;;;;;;4980513;28;20438;-89
2023/07/13 11:28:22;;;;;;;3.80;3.33;;;25.20;1.00;;;;;;4982295;28;20517;-89
2023/07/13 11:31:18;;;;;;;4.23;2.50;;;25.20;99.90;;;;;;4982175;28;20429;-90
2023/07/13 11:34:05;;;;;;;5.43;3.13;;;25.20;99.90;;;;;;4976287;29;20426;-91
2023/07/13 11:36:45;;;;;;;3.00;2.80;;;25.20;99.90;;;;;;4972943;29;20442;-91
2023/07/13 11:42:36;;;;;;;3.10;2.40;;;;;;;;;;4957498;29;20518;-91
2023/07/13 11:45:34;;;;;;;4.93;2.50;;;25.30;99.90;;;;;;4971651;29;20458;-92
2023/07/13 11:48:34;;;;;;;4.13;2.60;;;25.50;99.90;;;;;;4974172;29;20466;-91
2023/07/13 11:51:24;;;;;;;4.70;2.70;;;25.30;99.90;;;;;;4973112;28;20458;-92
2023/07/13 11:57:33;;;;;;;2.80;2.60;;;25.00;99.90;;;;;;4968012;29;20461;-91
2023/07/13 12:00:09;;;;;;;6.80;3.67;;;25.00;99.90;;;;;;4972256;29;20438;-91
2023/07/13 12:02:45;;;;;;;3.20;2.87;;;25.00;99.90;;;;;;4972766;28;20509;-91
2023/07/13 12:05:22;;;;;;;6.10;3.37;;;25.10;99.90;;;;;;4977868;29;20439;-91
2023/07/13 12:07:50;;;;;;;5.53;2.80;;;;;;;;;;4978588;28;20469;-90
2023/07/13 12:10:33;;;;;;;5.37;2.80;;;25.20;99.90;;;;;;4980223;28;20449;-88
2023/07/13 12:13:03;;;;;;;3.10;2.80;;;25.20;99.90;;;;;;4977082;28;20474;-91
2023/07/13 12:15:41;;;;;;;3.27;2.80;;;25.30;99.90;;;;;;4972356;29;20469;-92
2023/07/13 12:18:23;;;;;;;3.33;2.77;;;25.30;99.90;;;;;;4973507;29;20457;-91
2023/07/13 12:23:37;;;;;;;2.73;2.53;;;25.40;99.90;;;;;;4961089;28;20476;-91
2023/07/13 12:26:13;;;;;;;2.90;2.70;;;25.50;99.90;;;;;;4980178;28;20430;-91
2023/07/13 12:28:56;;;;;;;2.77;2.57;;;25.40;99.90;;;;;;4979979;28;20474;-92
2023/07/13 12:31:47;;;;;;;2.30;2.00;;;25.40;99.90;;;;;;4979484;28;20478;-92
2023/07/13 12:34:24;;;;;;;7.20;2.43;;;25.40;99.90;;;;;;4965840;29;20501;-91
2023/07/13 12:36:59;;;;;;;4.30;2.77;;;25.50;99.90;;;;;;4979218;28;20457;-90
2023/07/13 12:39:37;;;;;;;4.23;2.80;;;25.50;99.90;;;;;;4981084;28;20428;-91
2023/07/13 12:45:13;;;;;;;3.27;2.70;;;25.50;99.90;;;;;;4968819;29;20461;-92
2023/07/13 12:47:43;;;;;;;3.57;2.27;;;25.70;99.90;;;;;;4968386;29;20427;-92
2023/07/13 12:50:21;;;;;;;2.80;2.60;;;25.80;99.90;;;;;;4968371;29;20477;-92
2023/07/13 12:52:58;;;;;;;3.13;2.67;;;25.70;99.90;;;;;;4967554;28;20481;-92
2023/07/13 12:55:26;;;;;;;3.90;2.30;;;;;;;;;;4971283;29;20506;-91
2023/07/13 12:57:58;;;;;;;6.23;2.90;;;25.60;99.90;;;;;;4969658;29;20442;-92
2023/07/13 13:00:33;;;;;;;3.77;2.20;;;25.70;99.90;;;;;;4966374;29;20442;-92
2023/07/13 13:03:22;;;;;;;6.33;2.47;;;25.60;99.90;;;;;;4968181;28;20509;-92
2023/07/13 13:05:49;;;;;;;2.80;2.43;;;;;;;;;;4972956;29;20427;-92
2023/07/13 13:08:17;;;;;;;4.10;2.43;;;;;;;;;;4970810;28;20458;-92
2023/07/13 13:10:45;;;;;;;6.13;2.90;;;;;;;;;;4967540;29;20486;-92
2023/07/13 13:13:13;;;;;;;3.00;2.13;;;;;;;;;;4972685;29;20493;-92
2023/07/13 13:15:46;;;;;;;2.90;2.27;;;25.60;99.90;;;;;;4972492;29;20442;-91
2023/07/13 13:18:23;;;;;;;4.83;2.10;;;24.90;1.00;;;;;;4971962;29;20482;-91
2023/07/13 13:20:51;;;;;;;5.37;2.63;;;;;;;;;;4973424;28;20433;-91
2023/07/13 13:23:23;;;;;;;2.90;1.90;;;25.30;99.90;;;;;;4974508;29;20481;-91
2023/07/13 13:25:53;;;;;;;3.20;2.30;;;25.40;99.90;;;;;;4976190;28;20513;-89
2023/07/13 13:28:24;;;;;;;3.97;2.63;;;25.50;99.90;;;;;;4977161;28;20442;-92
2023/07/13 13:30:55;;;;;;;5.57;3.07;;;26.70;99.90;;;;;;4977395;28;20454;-88
2023/07/13 13:33:23;;;;;;;4.20;2.33;;;25.60;99.90;;;;;;4975509;28;20467;-92
2023/07/13 13:35:52;;;;;;;2.30;1.97;;;;;;;;;;4977547;28;20526;-91
2023/07/13 13:38:29;;;;;;;3.43;1.97;;;25.70;99.90;;;;;;4977353;28;20442;-89
2023/07/13 13:40:56;;;;;;;3.00;1.97;;;;;;;;;;4977663;28;20435;-91
2023/07/13 13:43:37;;;;;;;2.40;1.83;;;25.70;99.90;;;;;;4968375;28;20506;-92
2023/07/13 13:46:15;;;;;;;2.67;2.40;;;25.80;99.90;;;;;;4968500;29;20434;-92
2023/07/13 13:48:45;;;;;;;6.43;4.33;;;25.80;99.90;;;;;;4969568;29;20419;-92
2023/07/13 13:51:19;;;;;;;2.50;2.20;;;25.90;99.90;;;;;;4969639;28;20486;-91
2023/07/13 14:27:46;;;;;;;1.70;1.60;;;25.80;99.90;;;;;;5006042;23;20501;-92
2023/07/13 14:30:19;;;;;;;2.60;1.43;;;25.80;1.00;;;;;;4974253;29;20454;-92
2023/07/13 14:32:47;;;;;;;4.00;1.83;;;;;;;;;;4979251;28;20434;-89
2023/07/13 14:35:25;;;;;;;3.70;1.97;;;25.80;99.90;;;;;;4979164;28;20462;-89
2023/07/13 14:37:53;;;;;;;2.67;1.80;;;;;;;;;;4977506;28;20482;-92
2023/07/13 14:40:25;;;;;;;2.90;2.00;;;25.60;99.90;;;;;;4978103;28;20462;-91
2023/07/13 14:42:53;;;;;;;2.10;1.90;;;;;;;;;;4973391;29;20566;-91
2023/07/13 14:45:21;;;;;;;4.30;2.10;;;25.50;99.90;;;;;;4965176;29;20527;-92
2023/07/13 14:47:49;;;;;;;2.80;2.07;;;;;;;;;;4974626;28;20526;-91
2023/07/13 14:50:21;;;;;;;6.30;2.80;;;24.10;99.90;;;;;;4973818;28;20462;-91
2023/07/13 14:52:51;;;;;;;5.30;2.50;;;25.60;99.90;;;;;;4972053;29;20463;-92
2023/07/13 14:55:19;;;;;;;3.87;2.67;;;25.70;99.90;;;;;;4962252;28;20450;-91
2023/07/13 14:57:47;;;;;;;3.40;2.20;;;;;;;;;;4977619;28;20470;-90
2023/07/13 15:00:16;;;;;;;3.23;1.60;;;27.90;99.90;;;;;;4973934;29;20452;-91
2023/07/13 15:02:46;;;;;;;2.20;1.53;;;25.80;1.00;;;;;;4971186;29;20477;-91
2023/07/13 15:05:17;;;;;;;3.50;2.80;;;26.20;1.00;;;;;;4971519;29;20447;-91
2023/07/13 15:07:45;;;;;;;3.43;1.90;;;26.00;1.00;;;;;;4970890;29;20493;-91
2023/07/13 15:10:17;;;;;;;1.50;1.33;;;25.60;99.90;;;;;;4971011;29;20454;-91
2023/07/13 15:12:44;;;;;;;1.40;1.30;;;25.60;99.90;;;;;;4972665;29;20453;-91
2023/07/13 15:15:11;;;;;;;1.63;1.50;;;25.60;99.90;;;;;;4970532;29;20478;-91
2023/07/13 15:17:40;;;;;;;1.80;1.57;;;25.60;99.90;;;;;;4971996;29;20489;-92
2023/07/13 15:20:20;;;;;;;2.67;1.60;;;25.60;99.90;;;;;;4973359;29;20641;-92
2023/07/13 15:22:48;;;;;;;1.80;1.30;;;;;;;;;;4973532;29;20517;-92
2023/07/13 15:25:18;;;;;;;6.23;2.27;;;25.80;99.90;;;;;;4973360;29;20522;-92
2023/07/13 15:27:46;;;;;;;1.80;1.70;;;;;;;;;;4975083;29;20493;-92
2023/07/13 15:30:16;;;;;;;2.20;1.53;;;26.10;1.00;;;;;;4977305;28;20462;-92
2023/07/13 15:32:44;;;;;;;1.87;1.77;;;;;;;;;;4976287;29;20454;-92
2023/07/13 15:35:17;;;;;;;3.87;1.80;;;25.80;99.90;;;;;;4975272;29;21010;-90
2023/07/13 15:37:45;;;;;;;3.50;1.60;;;;;;;;;;4975765;29;20466;-91
2023/07/13 15:40:13;;;;;;;1.17;1.00;;;25.90;1.00;;;;;;4977735;29;20459;-91
2023/07/13 15:42:41;;;;;;;2.73;1.80;;;25.70;99.90;;;;;;4979600;28;20453;-92
2023/07/13 15:45:25;;;;;;;1.93;1.40;;;25.70;99.90;;;;;;4978752;29;20478;-91
2023/07/13 15:47:52;;;;;;;3.07;1.30;;;;;;;;;;4975494;29;20510;-90
2023/07/13 15:50:23;;;;;;;2.70;1.80;;;25.70;99.90;;;;;;4966047;29;20451;-91
2023/07/13 15:52:53;;;;;;;2.60;1.83;;;25.70;99.90;;;;;;4980253;28;20478;-90
2023/07/13 15:55:20;;;;;;;2.33;1.40;;;;;;;;;;4980897;28;20450;-92
2023/07/13 15:57:51;;;;;;;2.60;1.50;;;25.60;99.90;;;;;;4972837;29;20505;-91
2023/07/13 16:00:22;;;;;;;2.83;1.90;;;25.60;99.90;;;;;;4978797;28;20453;-92
2023/07/13 16:02:50;;;;;;;1.83;1.60;;;;;;;;;;4979577;28;20513;-92
2023/07/13 16:05:17;;;;;;;3.20;1.57;;;;;;;;;;4974701;29;20951;-92
2023/07/13 16:07:50;;;;;;;2.20;2.00;;;25.70;99.90;;;;;;4971257;28;20474;-92
2023/07/13 16:10:17;;;;;;;3.50;2.10;;;;;;;;;;4973023;29;20470;-92
2023/07/13 16:12:45;;;;;;;2.27;2.07;;;;;;;;;;4970125;29;20450;-92
2023/07/13 16:15:18;;;;;;;1.93;1.70;;;25.80;99.90;;;;;;4975937;29;20471;-91
2023/07/13 16:17:46;;;;;;;4.67;2.37;;;;;;;;;;4978015;28;20478;-92
2023/07/13 16:20:14;;;;;;;5.03;1.90;;;25.80;99.90;;;;;;4980215;28;20450;-91
2023/07/13 16:22:46;;;;;;;2.93;2.07;;;25.50;1.00;;;;;;4980776;28;20502;-90
2023/07/13 16:25:28;;;;;;;1.70;1.60;;;25.70;99.90;;;;;;4977908;28;20477;-92
2023/07/13 16:28:00;;;;;;;2.40;2.10;;;25.70;99.90;;;;;;4973912;29;20529;-91
2023/07/13 16:30:29;;;;;;;1.80;1.70;;;25.70;99.90;;;;;;4972954;29;20443;-92
2023/07/13 16:32:57;;;;;;;2.03;1.53;;;;;;;;;;4970146;29;20506;-91
2023/07/13 16:35:26;;;;;;;5.57;2.60;;;25.70;99.90;;;;;;4970350;29;20456;-90
2023/07/13 16:37:55;;;;;;;3.87;1.90;;;;;;;;;;4971578;29;20499;-92
2023/07/13 16:40:26;;;;;;;2.53;1.80;;;25.60;99.90;;;;;;4969904;29;20538;-92
2023/07/13 16:42:56;;;;;;;2.50;2.03;;;25.60;99.90;;;;;;4968888;29;20805;-91
2023/07/13 16:45:26;;;;;;;3.70;2.03;;;25.50;99.90;;;;;;4972203;29;20494;-91
2023/07/13 16:47:54;;;;;;;2.43;2.10;;;25.30;99.90;;;;;;4974730;29;20474;-91
2023/07/13 16:50:24;;;;;;;2.90;2.70;;;25.10;99.90;;;;;;4973483;29;20450;-91
2023/07/13 16:52:52;;;;;;;3.50;1.60;;;24.90;99.90;;;;;;4971640;29;20461;-91
2023/07/13 16:55:27;;;;;;;4.50;2.60;;;24.80;99.90;;;;;;4968900;29;20533;-92
2023/07/13 16:57:58;;;;;;;4.87;2.90;;;26.00;99.90;;;;;;4978301;28;20466;-92
2023/07/13 17:00:29;;;;;;;2.53;2.10;;;24.30;99.90;;;;;;4969044;29;20447;-91
2023/07/13 17:03:01;;;;;;;6.70;2.63;;;24.50;99.90;;;;;;4970023;29;20502;-91
2023/07/13 17:05:28;;;;;;;4.33;3.23;;;;;;;;;;4974629;28;20533;-90
2023/07/13 17:07:56;;;;;;;4.27;3.00;;;;;;;;;;4978492;28;20518;-90
2023/07/13 17:10:24;;;;;;;3.03;2.67;;;24.60;99.90;;;;;;4976179;28;20478;-91
2023/07/13 17:12:52;;;;;;;4.53;3.20;;;24.60;99.90;;;;;;4970655;29;20460;-91
2023/07/13 17:15:21;;;;;;;3.93;3.00;;;24.50;99.90;;;;;;4974570;28;20522;-89
2023/07/13 17:17:50;;;;;;;8.27;3.57;;;23.60;99.90;;;;;;4979687;28;20466;-88
2023/07/13 17:20:23;;;;;;;3.30;2.13;;;23.60;99.90;;;;;;4971694;28;20435;-91
2023/07/13 17:22:51;;;;;;;5.63;2.83;;;;;;;;;;4977906;28;20422;-90
2023/07/13 17:25:20;;;;;;;3.67;2.07;;;21.90;99.90;;;;;;4978250;28;20501;-90
2023/07/13 17:27:48;;;;;;;7.80;2.50;;;;;;;;;;4975061;29;20482;-91
2023/07/13 17:30:16;;;;;;;2.93;2.47;;;;;;;;;;4974436;29;20790;-91
2023/07/13 17:32:45;;;;;;;2.40;2.00;;;21.00;99.90;;;;;;4973069;29;20542;-91
2023/07/13 17:35:22;;;;;;;4.00;2.30;;;20.90;99.90;;;;;;4972362;29;20454;-91
2023/07/13 17:37:50;;;;;;;7.37;2.20;;;;;;;;;;4971932;29;20501;-92
2023/07/13 17:40:18;;;;;;;4.60;2.13;;;20.60;99.90;;;;;;4972790;29;20446;-92
2023/07/13 17:42:46;;;;;;;3.40;2.60;;;;;;;;;;4972852;29;20445;-91
2023/07/13 17:45:19;;;;;;;2.20;1.70;;;20.30;99.90;;;;;;4974622;29;20478;-92
2023/07/13 17:47:49;;;;;;;3.13;2.00;;;19.90;1.00;;;;;;4978787;28;20482;-90
2023/07/13 17:50:22;;;;;;;4.30;2.90;;;20.10;99.90;;;;;;4978933;28;20506;-92
2023/07/13 17:52:49;;;;;;;2.27;2.00;;;20.10;99.90;;;;;;4975587;28;20429;-91
2023/07/13 17:55:19;;;;;;;3.83;2.73;;;19.20;99.90;;;;;;4974348;29;20450;-91
2023/07/13 17:57:48;;;;;;;5.83;1.97;;;20.00;99.90;;;;;;4977860;28;20467;-92
2023/07/13 18:03:06;;;;;;;3.60;2.33;;;20.00;99.90;;;;;;4975307;28;20449;-89
2023/07/13 18:05:35;;;;;;;2.83;2.63;;;;;;;;;;4979797;28;20486;-88
2023/07/13 18:08:04;;;;;;;3.30;3.00;;;20.30;1.00;;;;;;4979942;28;20411;-88
2023/07/13 18:10:32;;;;;;;3.53;2.70;;;20.20;1.00;;;;;;4979004;28;20455;-91
2023/07/13 18:13:00;;;;;;;6.07;3.67;;;20.00;99.90;;;;;;4977766;29;20459;-91
2023/07/13 18:15:31;;;;;;;4.00;3.30;;;20.10;99.90;;;;;;4973033;29;20481;-91
2023/07/13 18:18:06;;;;;;;5.60;4.13;;;20.10;99.90;;;;;;4969855;29;20550;-92
2023/07/13 18:20:33;;;;;;;8.23;4.23;;;;;;;;;;4974470;29;20421;-92
2023/07/13 18:23:06;;;;;;;7.33;4.87;;;;;;;;;;4971284;29;20503;-91
2023/07/13 18:25:50;;;;;;;14.00;11.87;;;20.10;99.90;;;;;;4974527;29;20466;-90
2023/07/13 18:28:25;;;;;;;3.93;3.20;;;20.20;99.90;;;;;;4974230;29;20468;-91
2023/07/13 18:31:10;;;;;;;7.50;3.97;;;20.30;99.90;;;;;;4975915;28;20450;-92
2023/07/13 18:33:57;;;;;;;3.90;3.33;;;20.20;99.90;;;;;;4976571;29;20462;-93
2023/07/13 18:36:35;;;;;;;4.40;2.73;;;20.40;99.90;;;;;;4973008;29;20470;-92
2023/07/13 18:42:02;;;;;;;3.10;2.90;;;;;;;;;;4974931;29;20446;-93
2023/07/13 18:44:56;;;;;;;2.60;2.40;;;20.30;99.90;;;;;;4976379;29;20470;-93
2023/07/13 18:47:24;;;;;;;2.73;2.40;;;;;;;;;;4970727;29;20474;-92
2023/07/13 18:50:02;;;;;;;2.47;2.23;;;20.20;99.90;;;;;;4975195;29;20463;-90
2023/07/13 18:52:30;;;;;;;2.63;2.43;;;;;;;;;;4982764;28;20453;-91
2023/07/13 18:55:01;;;;;;;2.97;2.70;;;20.20;99.90;;;;;;4982726;28;20457;-91
2023/07/13 18:57:31;;;;;;;7.63;4.27;;;19.90;1.00;;;;;;4982611;28;20442;-89
2023/07/13 19:00:07;;;;;;;3.43;3.00;;;20.00;99.90;;;;;;4979652;28;20457;-91
2023/07/13 19:02:40;;;;;;;3.90;3.00;;;20.10;99.90;;;;;;4976431;29;20449;-90
2023/07/13 19:05:25;;;;;;;7.03;3.10;;;20.10;99.90;;;;;;4977256;29;20460;-91
2023/07/13 19:07:53;;;;;;;4.27;2.63;;;;;;;;;;4980644;28;20481;-92
2023/07/13 19:10:25;;;;;;;4.70;2.50;;;19.90;99.90;;;;;;4976050;29;20442;-91
2023/07/13 19:13:02;;;;;;;7.27;4.87;;;20.00;99.90;;;;;;4982519;28;20426;-90
2023/07/13 19:15:35;;;;;;;4.83;3.77;;;20.00;99.90;;;;;;4981184;28;20521;-91
2023/07/13 19:18:12;;;;;;;5.90;3.60;;;20.00;99.90;;;;;;4975612;29;20438;-91
2023/07/13 19:20:42;;;;;;;5.67;4.77;;;20.00;99.90;;;;;;4975319;29;20509;-92
2023/07/13 19:23:31;;;;;;;6.70;4.80;;;20.00;1.00;;;;;;4976515;29;20435;-91
2023/07/13 19:26:03;;;;;;;4.60;3.90;;;20.10;99.90;;;;;;4975046;29;21022;-92
2023/07/13 19:28:38;;;;;;;5.43;4.87;;;20.00;99.90;;;;;;4977065;28;20466;-91
2023/07/13 19:31:05;;;;;;;7.33;3.93;;;;;;;;;;4976927;28;20434;-91
2023/07/13 19:33:32;;;;;;;5.20;3.50;;;;;;;;;;4974899;29;20443;-91
2023/07/13 19:36:02;;;;;;;3.40;3.00;;;19.90;99.90;;;;;;4981257;28;20469;-91
2023/07/13 19:38:29;;;;;;;3.30;2.53;;;;;;;;;;4981848;28;20475;-90
2023/07/13 19:40:57;;;;;;;4.53;3.27;;;;;;;;;;4981246;28;20445;-90
2023/07/13 19:43:24;;;;;;;6.83;3.60;;;;;;;;;;4981956;28;20459;-90
2023/07/13 19:45:53;;;;;;;7.50;5.60;;;;;;;;;;4982083;28;20493;-87
2023/07/13 19:48:23;;;;;;;6.03;4.10;;;19.70;99.90;;;;;;4982241;28;20439;-89
2023/07/13 19:50:50;;;;;;;11.13;5.00;;;;;;;;;;4982170;28;20442;-90
2023/07/13 19:53:20;;;;;;;4.03;3.63;;;19.30;99.90;;;;;;4973826;28;20479;-87
2023/07/13 19:55:47;;;;;;;4.30;3.27;;;;;;;;;;4982075;28;20422;-88
2023/07/13 19:58:16;;;;;;;3.23;2.93;;;;;;;;;;4981885;28;20443;-88
2023/07/13 20:00:44;;;;;;;3.57;3.27;;;;;;;;;;4981786;28;20438;-90
2023/07/13 20:03:11;;;;;;;3.23;3.03;;;;;;;;;;4978816;28;20466;-90
2023/07/13 20:05:38;;;;;;;3.17;2.87;;;;;;;;;;4974780;29;20546;-89
2023/07/13 20:08:18;;;;;;;3.40;3.10;;;19.60;99.90;;;;;;4971948;29;20469;-91
2023/07/13 20:10:49;;;;;;;4.23;3.10;;;19.60;99.90;;;;;;4974274;28;20463;-90
2023/07/13 20:13:20;;;;;;;7.30;3.40;;;;;;;;;;4981666;28;20441;-90
2023/07/13 20:15:48;;;;;;;5.13;3.80;;;;;;;;;;4979994;28;20430;-91
2023/07/13 20:18:18;;;;;;;2.73;2.53;;;19.50;99.90;;;;;;4980387;28;20438;-88
2023/07/13 20:20:47;;;;;;;4.70;3.80;;;19.50;99.90;;;;;;4981628;28;20448;-90
2023/07/13 20:23:18;;;;;;;5.13;3.83;;;19.20;1.00;;;;;;4981502;28;20426;-88
2023/07/13 20:25:48;;;;;;;5.53;3.30;;;19.60;99.90;;;;;;4981176;28;20479;-89
2023/07/13 21:16:14;;;;;;;2.80;2.60;;;19.30;99.90;;;;;;4699745;27;20489;-91
2023/07/13 21:18:41;;;;;;;3.50;3.20;;;;;;;;;;4972959;29;20836;-91
2023/07/13 21:21:11;;;;;;;4.93;3.60;;;19.20;99.90;;;;;;4969429;29;20806;-91
2023/07/13 21:23:39;;;;;;;4.10;3.30;;;19.10;1.00;;;;;;4972506;28;21062;-90
2023/07/13 21:26:10;;;;;;;3.87;3.10;;;19.20;99.90;;;;;;4975706;29;20489;-91
2023/07/13 21:28:38;;;;;;;3.80;2.50;;;19.20;99.90;;;;;;4976702;29;20431;-91
2023/07/13 21:31:09;;;;;;;4.50;3.40;;;19.10;99.90;;;;;;4975351;29;20454;-90
2023/07/13 21:33:37;;;;;;;3.07;2.63;;;;;;;;;;4975448;28;20442;-89
2023/07/13 21:36:07;;;;;;;4.70;2.97;;;18.90;99.90;;;;;;4973480;29;20450;-90
2023/07/13 21:38:36;;;;;;;3.27;2.97;;;20.40;99.90;;;;;;4975320;28;20431;-90
2023/07/13 21:41:06;;;;;;;3.53;3.23;;;18.30;33.10;;;;;;4980044;28;20445;-89
2023/07/13 21:43:35;;;;;;;5.50;3.10;;;19.00;99.90;;;;;;4979569;28;20414;-91
2023/07/13 21:46:05;;;;;;;2.40;2.20;;;18.90;99.90;;;;;;4977778;28;20494;-90
2023/07/13 21:48:32;;;;;;;2.77;2.57;;;;;;;;;;4980085;28;20446;-89
2023/07/13 21:51:00;;;;;;;3.87;3.03;;;;;;;;;;4980266;28;20435;-89
2023/07/13 21:53:30;;;;;;;2.90;2.70;;;19.00;99.90;;;;;;4975952;28;20439;-91
2023/07/13 21:56:00;;;;;;;3.20;2.80;;;18.90;99.90;;;;;;4971628;29;20415;-91
2023/07/13 21:58:31;;;;;;;3.50;3.30;;;18.90;99.90;;;;;;4977602;29;20439;-91
2023/07/13 22:01:00;;;;;;;5.90;3.20;;;18.90;99.90;;;;;;4978081;28;20438;-90
2023/07/13 22:03:31;;;;;;;3.20;2.90;;;18.90;99.90;;;;;;4979930;28;20478;-89
2023/07/13 22:05:58;;;;;;;3.50;3.20;;;;;;;;;;4983144;28;20458;-89
2023/07/13 22:08:33;;;;;;;3.83;2.80;;;18.80;99.90;;;;;;4983377;28;20438;-91
2023/07/13 22:11:00;;;;;;;5.50;4.90;;;;;;;;;;4980933;29;20446;-91
2023/07/13 22:13:29;;;;;;;15.77;9.50;;;18.80;48.10;;;;;;4978985;28;20442;-91
2023/07/13 22:15:57;;;;;;;3.57;3.27;;;;;;;;;;4981931;28;20473;-91
2023/07/13 22:18:26;;;;;;;3.03;2.83;;;18.70;99.90;;;;;;4980843;29;20451;-90
2023/07/13 22:20:53;;;;;;;4.10;3.13;;;18.70;99.90;;;;;;4976347;29;20454;-92
2023/07/13 22:23:23;;;;;;;2.83;2.63;;;18.80;99.90;;;;;;4981465;28;20457;-92
2023/07/13 22:25:53;;;;;;;2.80;2.57;;;19.00;80.70;;;;;;4973276;29;20477;-90
2023/07/13 22:28:21;;;;;;;3.10;2.80;;;18.80;1.00;;;;;;4971376;29;20493;-90
2023/07/13 22:30:50;;;;;;;5.23;3.40;;;18.70;1.00;;;;;;4971367;28;20497;-90
2023/07/13 22:33:19;;;;;;;4.40;3.07;;;18.80;50.50;;;;;;4983447;28;20502;-87
2023/07/13 22:35:48;;;;;;;4.80;3.20;;;19.80;1.00;;;;;;4977583;28;20438;-91
2023/07/13 22:38:18;;;;;;;3.70;2.97;;;18.60;1.00;;;;;;4983190;28;20441;-87
2023/07/13 22:40:46;;;;;;;3.40;2.77;;;18.60;1.00;;;;;;4983509;28;20452;-88